sensor_id;sensor_type;location;lat;lon;timestamp;P1;durP1;ratioP1;P2;durP2;ratioP2
32080;SDS011;18593;51.426;7.030;2023-12-07T00:02:05;43.15;;;25.30;;
32080;SDS011;18593;51.426;7.030;2023-12-07T00:04:33;43.35;;;25.00;;
32080;SDS011;18593;51.426;7.030;2023-12-07T00:07:02;47.17;;;27.10;;
32080;SDS011;18593;51.426;7.030;2023-12-07T00:09:31;46.08;;;25.92;;
32080;SDS011;18593;51.426;7.030;2023-12-07T00:12:01;52.57;;;27.90;;
32080;SDS011;18593;51.426;7.030;2023-12-07T00:14:36;46.65;;;25.88;;
32080;SDS011;18593;51.426;7.030;2023-12-07T00:17:07;49.83;;;28.17;;
32080;SDS011;18593;51.426;7.030;2023-12-07T00:19:40;54.22;;;28.42;;
32080;SDS011;18593;51.426;7.030;2023-12-07T00:22:08;49.78;;;28.00;;
32080;SDS011;18593;51.426;7.030;2023-12-07T00:24:46;50.15;;;28.15;;
32080;SDS011;18593;51.426;7.030;2023-12-07T00:27:24;55.00;;;29.35;;
32080;SDS011;18593;51.426;7.030;2023-12-07T00:29:58;56.75;;;30.70;;
32080;SDS011;18593;51.426;7.030;2023-12-07T00:32:30;55.28;;;30.05;;
32080;SDS011;18593;51.426;7.030;2023-12-07T00:35:08;58.17;;;31.30;;
32080;SDS011;18593;51.426;7.030;2023-12-07T00:37:43;58.13;;;30.30;;
32080;SDS011;18593;51.426;7.030;2023-12-07T00:40:14;61.70;;;32.25;;
32080;SDS011;18593;51.426;7.030;2023-12-07T00:42:42;61.00;;;31.17;;
32080;SDS011;18593;51.426;7.030;2023-12-07T00:45:13;62.55;;;32.85;;
32080;SDS011;18593;51.426;7.030;2023-12-07T00:47:49;56.05;;;30.88;;
32080;SDS011;18593;51.426;7.030;2023-12-07T00:50:18;58.28;;;31.17;;
32080;SDS011;18593;51.426;7.030;2023-12-07T00:52:53;60.35;;;30.17;;
32080;SDS011;18593;51.426;7.030;2023-12-07T00:55:25;58.05;;;30.88;;
32080;SDS011;18593;51.426;7.030;2023-12-07T00:57:55;58.60;;;31.95;;
32080;SDS011;18593;51.426;7.030;2023-12-07T01:05:00;59.33;;;31.63;;
32080;SDS011;18593;51.426;7.030;2023-12-07T01:07:32;58.58;;;31.55;;
32080;SDS011;18593;51.426;7.030;2023-12-07T01:10:03;59.72;;;31.33;;
32080;SDS011;18593;51.426;7.030;2023-12-07T01:12:33;57.88;;;31.20;;
32080;SDS011;18593;51.426;7.030;2023-12-07T01:15:00;57.35;;;31.15;;
32080;SDS011;18593;51.426;7.030;2023-12-07T01:17:28;53.50;;;30.10;;
32080;SDS011;18593;51.426;7.030;2023-12-07T01:19:56;56.72;;;30.50;;
32080;SDS011;18593;51.426;7.030;2023-12-07T01:22:25;57.38;;;30.67;;
32080;SDS011;18593;51.426;7.030;2023-12-07T01:24:52;60.22;;;32.67;;
32080;SDS011;18593;51.426;7.030;2023-12-07T01:27:19;56.58;;;32.22;;
32080;SDS011;18593;51.426;7.030;2023-12-07T01:29:47;57.90;;;31.40;;
32080;SDS011;18593;51.426;7.030;2023-12-07T01:32:15;59.08;;;32.78;;
32080;SDS011;18593;51.426;7.030;2023-12-07T01:34:43;58.15;;;30.35;;
32080;SDS011;18593;51.426;7.030;2023-12-07T01:37:10;59.38;;;32.33;;
32080;SDS011;18593;51.426;7.030;2023-12-07T01:39:39;61.13;;;33.00;;
32080;SDS011;18593;51.426;7.030;2023-12-07T01:42:08;61.90;;;32.70;;
32080;SDS011;18593;51.426;7.030;2023-12-07T01:44:37;53.47;;;31.42;;
32080;SDS011;18593;51.426;7.030;2023-12-07T01:47:05;55.13;;;31.40;;
32080;SDS011;18593;51.426;7.030;2023-12-07T01:49:35;63.03;;;34.37;;
32080;SDS011;18593;51.426;7.030;2023-12-07T01:52:03;65.20;;;34.45;;
32080;SDS011;18593;51.426;7.030;2023-12-07T01:54:32;65.55;;;35.08;;
32080;SDS011;18593;51.426;7.030;2023-12-07T01:57:02;68.57;;;35.78;;
32080;SDS011;18593;51.426;7.030;2023-12-07T01:59:32;71.72;;;35.92;;
32080;SDS011;18593;51.426;7.030;2023-12-07T02:02:00;70.50;;;36.47;;
32080;SDS011;18593;51.426;7.030;2023-12-07T02:04:28;77.13;;;38.03;;
32080;SDS011;18593;51.426;7.030;2023-12-07T02:06:57;69.85;;;37.00;;
32080;SDS011;18593;51.426;7.030;2023-12-07T02:09:26;72.85;;;37.67;;
32080;SDS011;18593;51.426;7.030;2023-12-07T02:11:54;66.57;;;34.63;;
32080;SDS011;18593;51.426;7.030;2023-12-07T02:14:24;65.80;;;34.83;;
32080;SDS011;18593;51.426;7.030;2023-12-07T02:16:54;70.18;;;35.97;;
32080;SDS011;18593;51.426;7.030;2023-12-07T02:19:42;71.43;;;37.60;;
32080;SDS011;18593;51.426;7.030;2023-12-07T02:22:24;65.35;;;35.45;;
32080;SDS011;18593;51.426;7.030;2023-12-07T02:25:08;65.53;;;34.40;;
32080;SDS011;18593;51.426;7.030;2023-12-07T02:27:39;69.03;;;36.15;;
32080;SDS011;18593;51.426;7.030;2023-12-07T02:30:11;68.15;;;35.65;;
32080;SDS011;18593;51.426;7.030;2023-12-07T02:32:39;68.85;;;36.15;;
32080;SDS011;18593;51.426;7.030;2023-12-07T02:35:09;71.05;;;37.03;;
32080;SDS011;18593;51.426;7.030;2023-12-07T02:37:40;72.20;;;37.38;;
32080;SDS011;18593;51.426;7.030;2023-12-07T02:40:12;72.10;;;36.95;;
32080;SDS011;18593;51.426;7.030;2023-12-07T02:42:45;70.60;;;37.55;;
32080;SDS011;18593;51.426;7.030;2023-12-07T02:45:14;73.65;;;37.63;;
32080;SDS011;18593;51.426;7.030;2023-12-07T02:47:42;72.63;;;37.83;;
32080;SDS011;18593;51.426;7.030;2023-12-07T02:50:11;71.22;;;37.55;;
32080;SDS011;18593;51.426;7.030;2023-12-07T02:52:39;74.90;;;38.60;;
32080;SDS011;18593;51.426;7.030;2023-12-07T02:55:07;74.80;;;38.90;;
32080;SDS011;18593;51.426;7.030;2023-12-07T02:57:35;77.20;;;38.92;;
32080;SDS011;18593;51.426;7.030;2023-12-07T03:00:04;72.35;;;37.20;;
32080;SDS011;18593;51.426;7.030;2023-12-07T03:02:33;69.45;;;36.45;;
32080;SDS011;18593;51.426;7.030;2023-12-07T03:05:01;72.15;;;36.33;;
32080;SDS011;18593;51.426;7.030;2023-12-07T03:07:29;67.40;;;35.67;;
32080;SDS011;18593;51.426;7.030;2023-12-07T03:09:56;98.57;;;36.38;;
32080;SDS011;18593;51.426;7.030;2023-12-07T03:12:24;64.97;;;34.35;;
32080;SDS011;18593;51.426;7.030;2023-12-07T03:14:52;66.97;;;35.08;;
32080;SDS011;18593;51.426;7.030;2023-12-07T03:17:20;68.55;;;34.60;;
32080;SDS011;18593;51.426;7.030;2023-12-07T03:19:48;67.57;;;35.38;;
32080;SDS011;18593;51.426;7.030;2023-12-07T03:22:16;66.22;;;34.55;;
32080;SDS011;18593;51.426;7.030;2023-12-07T03:24:45;66.43;;;34.78;;
32080;SDS011;18593;51.426;7.030;2023-12-07T03:27:16;63.95;;;33.80;;
32080;SDS011;18593;51.426;7.030;2023-12-07T03:29:43;65.55;;;32.67;;
32080;SDS011;18593;51.426;7.030;2023-12-07T03:32:10;60.25;;;30.58;;
32080;SDS011;18593;51.426;7.030;2023-12-07T03:34:40;58.55;;;30.13;;
32080;SDS011;18593;51.426;7.030;2023-12-07T03:37:07;62.75;;;30.20;;
32080;SDS011;18593;51.426;7.030;2023-12-07T03:39:35;64.53;;;30.42;;
32080;SDS011;18593;51.426;7.030;2023-12-07T03:42:02;56.95;;;29.67;;
32080;SDS011;18593;51.426;7.030;2023-12-07T03:44:30;60.20;;;29.67;;
32080;SDS011;18593;51.426;7.030;2023-12-07T03:46:57;60.13;;;29.50;;
32080;SDS011;18593;51.426;7.030;2023-12-07T03:49:25;56.63;;;28.55;;
32080;SDS011;18593;51.426;7.030;2023-12-07T03:51:53;59.88;;;29.38;;
32080;SDS011;18593;51.426;7.030;2023-12-07T03:54:21;57.72;;;28.45;;
32080;SDS011;18593;51.426;7.030;2023-12-07T03:56:48;54.55;;;27.80;;
32080;SDS011;18593;51.426;7.030;2023-12-07T03:59:16;65.30;;;30.88;;
32080;SDS011;18593;51.426;7.030;2023-12-07T04:01:43;60.28;;;30.20;;
32080;SDS011;18593;51.426;7.030;2023-12-07T04:04:11;57.88;;;27.73;;
32080;SDS011;18593;51.426;7.030;2023-12-07T04:06:40;60.45;;;28.80;;
32080;SDS011;18593;51.426;7.030;2023-12-07T04:09:09;56.45;;;28.42;;
32080;SDS011;18593;51.426;7.030;2023-12-07T04:11:37;59.92;;;28.35;;
32080;SDS011;18593;51.426;7.030;2023-12-07T04:14:05;57.88;;;28.42;;
32080;SDS011;18593;51.426;7.030;2023-12-07T04:16:32;59.67;;;27.85;;
32080;SDS011;18593;51.426;7.030;2023-12-07T04:18:59;61.08;;;28.25;;
32080;SDS011;18593;51.426;7.030;2023-12-07T04:21:27;61.33;;;28.70;;
32080;SDS011;18593;51.426;7.030;2023-12-07T04:23:55;57.13;;;28.27;;
32080;SDS011;18593;51.426;7.030;2023-12-07T04:26:24;56.75;;;28.20;;
32080;SDS011;18593;51.426;7.030;2023-12-07T04:28:52;59.92;;;27.27;;
32080;SDS011;18593;51.426;7.030;2023-12-07T04:31:19;60.75;;;29.45;;
32080;SDS011;18593;51.426;7.030;2023-12-07T04:33:47;65.20;;;29.17;;
32080;SDS011;18593;51.426;7.030;2023-12-07T04:36:14;58.22;;;27.70;;
32080;SDS011;18593;51.426;7.030;2023-12-07T04:38:42;57.08;;;27.60;;
32080;SDS011;18593;51.426;7.030;2023-12-07T04:41:09;59.67;;;27.40;;
32080;SDS011;18593;51.426;7.030;2023-12-07T04:43:38;58.55;;;27.48;;
32080;SDS011;18593;51.426;7.030;2023-12-07T04:46:05;56.53;;;26.80;;
32080;SDS011;18593;51.426;7.030;2023-12-07T04:48:33;53.50;;;26.52;;
32080;SDS011;18593;51.426;7.030;2023-12-07T04:51:00;54.85;;;25.10;;
32080;SDS011;18593;51.426;7.030;2023-12-07T04:53:28;54.05;;;26.10;;
32080;SDS011;18593;51.426;7.030;2023-12-07T04:55:55;55.35;;;25.95;;
32080;SDS011;18593;51.426;7.030;2023-12-07T04:58:24;56.17;;;27.00;;
32080;SDS011;18593;51.426;7.030;2023-12-07T05:00:53;51.13;;;26.42;;
32080;SDS011;18593;51.426;7.030;2023-12-07T05:03:20;54.17;;;26.60;;
32080;SDS011;18593;51.426;7.030;2023-12-07T05:05:48;55.33;;;27.00;;
32080;SDS011;18593;51.426;7.030;2023-12-07T05:08:15;56.35;;;28.02;;
32080;SDS011;18593;51.426;7.030;2023-12-07T05:10:43;59.13;;;27.75;;
32080;SDS011;18593;51.426;7.030;2023-12-07T05:13:10;56.15;;;26.48;;
32080;SDS011;18593;51.426;7.030;2023-12-07T05:15:39;55.47;;;26.15;;
32080;SDS011;18593;51.426;7.030;2023-12-07T05:18:08;55.75;;;25.90;;
32080;SDS011;18593;51.426;7.030;2023-12-07T05:20:35;59.90;;;27.75;;
32080;SDS011;18593;51.426;7.030;2023-12-07T05:23:04;50.03;;;25.95;;
32080;SDS011;18593;51.426;7.030;2023-12-07T05:25:31;53.38;;;27.25;;
32080;SDS011;18593;51.426;7.030;2023-12-07T05:27:59;53.50;;;25.90;;
32080;SDS011;18593;51.426;7.030;2023-12-07T05:30:26;47.75;;;24.02;;
32080;SDS011;18593;51.426;7.030;2023-12-07T05:32:54;50.40;;;24.45;;
32080;SDS011;18593;51.426;7.030;2023-12-07T05:35:23;52.67;;;25.80;;
32080;SDS011;18593;51.426;7.030;2023-12-07T05:37:50;48.97;;;25.50;;
32080;SDS011;18593;51.426;7.030;2023-12-07T05:40:17;51.58;;;25.33;;
32080;SDS011;18593;51.426;7.030;2023-12-07T05:42:45;53.28;;;25.45;;
32080;SDS011;18593;51.426;7.030;2023-12-07T05:45:16;50.50;;;25.15;;
32080;SDS011;18593;51.426;7.030;2023-12-07T05:47:43;57.40;;;26.88;;
32080;SDS011;18593;51.426;7.030;2023-12-07T05:50:11;47.17;;;23.83;;
32080;SDS011;18593;51.426;7.030;2023-12-07T05:52:40;48.22;;;24.98;;
32080;SDS011;18593;51.426;7.030;2023-12-07T05:55:09;50.13;;;24.38;;
32080;SDS011;18593;51.426;7.030;2023-12-07T05:57:36;49.08;;;24.80;;
32080;SDS011;18593;51.426;7.030;2023-12-07T06:00:04;52.97;;;26.35;;
32080;SDS011;18593;51.426;7.030;2023-12-07T06:02:37;46.85;;;24.00;;
32080;SDS011;18593;51.426;7.030;2023-12-07T06:05:05;50.22;;;26.30;;
32080;SDS011;18593;51.426;7.030;2023-12-07T06:07:33;52.03;;;26.33;;
32080;SDS011;18593;51.426;7.030;2023-12-07T06:10:02;48.50;;;25.13;;
32080;SDS011;18593;51.426;7.030;2023-12-07T06:12:31;47.00;;;24.33;;
32080;SDS011;18593;51.426;7.030;2023-12-07T06:14:59;41.90;;;23.35;;
32080;SDS011;18593;51.426;7.030;2023-12-07T06:17:26;46.97;;;24.75;;
32080;SDS011;18593;51.426;7.030;2023-12-07T06:19:53;48.20;;;24.20;;
32080;SDS011;18593;51.426;7.030;2023-12-07T06:22:23;47.45;;;25.45;;
32080;SDS011;18593;51.426;7.030;2023-12-07T06:24:50;51.03;;;25.30;;
32080;SDS011;18593;51.426;7.030;2023-12-07T06:27:19;49.75;;;25.75;;
32080;SDS011;18593;51.426;7.030;2023-12-07T06:29:47;53.97;;;26.38;;
32080;SDS011;18593;51.426;7.030;2023-12-07T06:32:17;51.83;;;26.15;;
32080;SDS011;18593;51.426;7.030;2023-12-07T06:34:44;51.28;;;26.83;;
32080;SDS011;18593;51.426;7.030;2023-12-07T06:37:12;53.83;;;28.02;;
32080;SDS011;18593;51.426;7.030;2023-12-07T06:39:40;57.83;;;29.33;;
32080;SDS011;18593;51.426;7.030;2023-12-07T06:42:07;58.88;;;29.38;;
32080;SDS011;18593;51.426;7.030;2023-12-07T06:44:36;52.30;;;27.35;;
32080;SDS011;18593;51.426;7.030;2023-12-07T06:47:04;59.30;;;28.52;;
32080;SDS011;18593;51.426;7.030;2023-12-07T06:49:32;55.95;;;27.77;;
32080;SDS011;18593;51.426;7.030;2023-12-07T06:51:59;50.92;;;27.20;;
32080;SDS011;18593;51.426;7.030;2023-12-07T06:54:27;55.63;;;27.88;;
32080;SDS011;18593;51.426;7.030;2023-12-07T06:56:54;51.60;;;27.63;;
32080;SDS011;18593;51.426;7.030;2023-12-07T06:59:22;48.42;;;26.80;;
32080;SDS011;18593;51.426;7.030;2023-12-07T07:01:53;50.20;;;27.17;;
32080;SDS011;18593;51.426;7.030;2023-12-07T07:04:22;49.50;;;26.17;;
32080;SDS011;18593;51.426;7.030;2023-12-07T07:06:50;49.97;;;25.08;;
32080;SDS011;18593;51.426;7.030;2023-12-07T07:09:20;49.35;;;25.92;;
32080;SDS011;18593;51.426;7.030;2023-12-07T07:11:48;48.75;;;24.75;;
32080;SDS011;18593;51.426;7.030;2023-12-07T07:14:16;50.78;;;26.25;;
32080;SDS011;18593;51.426;7.030;2023-12-07T07:16:43;51.70;;;26.33;;
32080;SDS011;18593;51.426;7.030;2023-12-07T07:19:13;56.08;;;27.23;;
32080;SDS011;18593;51.426;7.030;2023-12-07T07:21:42;45.75;;;25.35;;
32080;SDS011;18593;51.426;7.030;2023-12-07T07:24:12;49.95;;;26.17;;
32080;SDS011;18593;51.426;7.030;2023-12-07T07:26:41;48.03;;;24.55;;
32080;SDS011;18593;51.426;7.030;2023-12-07T07:29:08;50.17;;;24.70;;
32080;SDS011;18593;51.426;7.030;2023-12-07T07:31:36;47.28;;;24.77;;
32080;SDS011;18593;51.426;7.030;2023-12-07T07:34:03;51.97;;;25.58;;
32080;SDS011;18593;51.426;7.030;2023-12-07T07:36:32;48.15;;;25.33;;
32080;SDS011;18593;51.426;7.030;2023-12-07T07:39:01;49.42;;;25.80;;
32080;SDS011;18593;51.426;7.030;2023-12-07T07:41:29;52.58;;;25.50;;
32080;SDS011;18593;51.426;7.030;2023-12-07T07:43:57;56.28;;;26.58;;
32080;SDS011;18593;51.426;7.030;2023-12-07T07:46:25;48.78;;;25.80;;
32080;SDS011;18593;51.426;7.030;2023-12-07T07:48:52;48.92;;;24.42;;
32080;SDS011;18593;51.426;7.030;2023-12-07T07:51:20;57.30;;;26.75;;
32080;SDS011;18593;51.426;7.030;2023-12-07T07:53:50;52.50;;;25.38;;
32080;SDS011;18593;51.426;7.030;2023-12-07T07:56:18;50.80;;;26.10;;
32080;SDS011;18593;51.426;7.030;2023-12-07T07:58:46;54.03;;;25.27;;
32080;SDS011;18593;51.426;7.030;2023-12-07T08:01:14;56.55;;;26.13;;
32080;SDS011;18593;51.426;7.030;2023-12-07T08:03:41;49.08;;;25.05;;
32080;SDS011;18593;51.426;7.030;2023-12-07T08:06:09;47.70;;;24.75;;
32080;SDS011;18593;51.426;7.030;2023-12-07T08:08:37;48.30;;;25.25;;
32080;SDS011;18593;51.426;7.030;2023-12-07T08:11:06;46.83;;;24.23;;
32080;SDS011;18593;51.426;7.030;2023-12-07T08:13:34;46.92;;;23.00;;
32080;SDS011;18593;51.426;7.030;2023-12-07T08:16:03;42.72;;;23.50;;
32080;SDS011;18593;51.426;7.030;2023-12-07T08:18:35;45.05;;;23.23;;
32080;SDS011;18593;51.426;7.030;2023-12-07T08:21:03;43.75;;;23.15;;
32080;SDS011;18593;51.426;7.030;2023-12-07T08:23:33;41.45;;;22.05;;
32080;SDS011;18593;51.426;7.030;2023-12-07T08:26:01;44.50;;;22.75;;
32080;SDS011;18593;51.426;7.030;2023-12-07T08:28:31;40.42;;;22.30;;
32080;SDS011;18593;51.426;7.030;2023-12-07T08:30:59;43.95;;;22.95;;
32080;SDS011;18593;51.426;7.030;2023-12-07T08:33:26;43.85;;;23.75;;
32080;SDS011;18593;51.426;7.030;2023-12-07T08:35:54;37.85;;;21.67;;
32080;SDS011;18593;51.426;7.030;2023-12-07T08:38:22;40.22;;;21.05;;
32080;SDS011;18593;51.426;7.030;2023-12-07T08:40:49;39.10;;;20.45;;
32080;SDS011;18593;51.426;7.030;2023-12-07T08:43:19;40.20;;;20.35;;
32080;SDS011;18593;51.426;7.030;2023-12-07T08:45:50;34.17;;;19.60;;
32080;SDS011;18593;51.426;7.030;2023-12-07T08:48:18;45.25;;;22.08;;
32080;SDS011;18593;51.426;7.030;2023-12-07T08:50:46;40.75;;;20.23;;
32080;SDS011;18593;51.426;7.030;2023-12-07T08:53:13;38.75;;;20.25;;
32080;SDS011;18593;51.426;7.030;2023-12-07T08:55:41;42.00;;;21.13;;
32080;SDS011;18593;51.426;7.030;2023-12-07T08:58:08;38.35;;;20.63;;
32080;SDS011;18593;51.426;7.030;2023-12-07T09:00:37;45.30;;;21.58;;
32080;SDS011;18593;51.426;7.030;2023-12-07T09:03:07;40.53;;;20.98;;
32080;SDS011;18593;51.426;7.030;2023-12-07T09:05:35;36.15;;;18.80;;
32080;SDS011;18593;51.426;7.030;2023-12-07T09:08:03;39.88;;;19.83;;
32080;SDS011;18593;51.426;7.030;2023-12-07T09:10:32;37.53;;;19.40;;
32080;SDS011;18593;51.426;7.030;2023-12-07T09:12:59;35.95;;;18.63;;
32080;SDS011;18593;51.426;7.030;2023-12-07T09:15:27;35.13;;;19.10;;
32080;SDS011;18593;51.426;7.030;2023-12-07T09:17:55;36.75;;;19.85;;
32080;SDS011;18593;51.426;7.030;2023-12-07T09:20:24;33.63;;;19.05;;
32080;SDS011;18593;51.426;7.030;2023-12-07T09:22:52;31.35;;;17.83;;
32080;SDS011;18593;51.426;7.030;2023-12-07T09:25:20;33.88;;;17.80;;
32080;SDS011;18593;51.426;7.030;2023-12-07T09:27:48;33.50;;;19.02;;
32080;SDS011;18593;51.426;7.030;2023-12-07T09:30:16;34.35;;;19.23;;
32080;SDS011;18593;51.426;7.030;2023-12-07T09:32:44;39.58;;;20.02;;
32080;SDS011;18593;51.426;7.030;2023-12-07T09:35:12;37.33;;;18.63;;
32080;SDS011;18593;51.426;7.030;2023-12-07T09:37:46;32.58;;;18.40;;
32080;SDS011;18593;51.426;7.030;2023-12-07T09:40:16;34.50;;;18.33;;
32080;SDS011;18593;51.426;7.030;2023-12-07T09:42:45;31.65;;;18.13;;
32080;SDS011;18593;51.426;7.030;2023-12-07T09:45:13;35.00;;;17.85;;
32080;SDS011;18593;51.426;7.030;2023-12-07T09:47:43;37.45;;;18.85;;
32080;SDS011;18593;51.426;7.030;2023-12-07T09:50:16;32.47;;;17.63;;
32080;SDS011;18593;51.426;7.030;2023-12-07T09:52:49;34.53;;;17.48;;
32080;SDS011;18593;51.426;7.030;2023-12-07T09:55:17;34.97;;;17.58;;
32080;SDS011;18593;51.426;7.030;2023-12-07T09:57:49;36.70;;;19.48;;
32080;SDS011;18593;51.426;7.030;2023-12-07T10:00:17;33.42;;;16.92;;
32080;SDS011;18593;51.426;7.030;2023-12-07T10:02:45;33.25;;;18.70;;
32080;SDS011;18593;51.426;7.030;2023-12-07T10:05:13;30.73;;;16.88;;
32080;SDS011;18593;51.426;7.030;2023-12-07T10:07:43;30.75;;;17.15;;
32080;SDS011;18593;51.426;7.030;2023-12-07T10:10:15;29.95;;;16.13;;
32080;SDS011;18593;51.426;7.030;2023-12-07T10:12:44;33.67;;;17.65;;
32080;SDS011;18593;51.426;7.030;2023-12-07T10:15:13;27.17;;;16.30;;
32080;SDS011;18593;51.426;7.030;2023-12-07T10:17:46;30.40;;;17.05;;
32080;SDS011;18593;51.426;7.030;2023-12-07T10:20:16;30.58;;;16.60;;
32080;SDS011;18593;51.426;7.030;2023-12-07T10:22:49;33.30;;;17.88;;
32080;SDS011;18593;51.426;7.030;2023-12-07T10:25:29;30.65;;;17.65;;
32080;SDS011;18593;51.426;7.030;2023-12-07T10:27:58;29.10;;;17.60;;
32080;SDS011;18593;51.426;7.030;2023-12-07T10:30:31;30.88;;;17.20;;
32080;SDS011;18593;51.426;7.030;2023-12-07T10:32:59;32.95;;;17.55;;
32080;SDS011;18593;51.426;7.030;2023-12-07T10:35:29;31.92;;;18.83;;
32080;SDS011;18593;51.426;7.030;2023-12-07T10:37:56;31.67;;;17.02;;
32080;SDS011;18593;51.426;7.030;2023-12-07T10:40:25;32.40;;;18.38;;
32080;SDS011;18593;51.426;7.030;2023-12-07T10:42:58;33.75;;;18.73;;
32080;SDS011;18593;51.426;7.030;2023-12-07T10:45:32;37.95;;;19.02;;
32080;SDS011;18593;51.426;7.030;2023-12-07T10:48:02;29.33;;;17.73;;
32080;SDS011;18593;51.426;7.030;2023-12-07T10:50:34;30.55;;;18.13;;
32080;SDS011;18593;51.426;7.030;2023-12-07T10:53:05;32.45;;;17.75;;
32080;SDS011;18593;51.426;7.030;2023-12-07T10:55:38;29.85;;;17.35;;
32080;SDS011;18593;51.426;7.030;2023-12-07T10:58:14;35.97;;;18.00;;
32080;SDS011;18593;51.426;7.030;2023-12-07T11:00:44;30.58;;;17.10;;
32080;SDS011;18593;51.426;7.030;2023-12-07T11:03:13;28.52;;;16.73;;
32080;SDS011;18593;51.426;7.030;2023-12-07T11:05:44;26.98;;;16.27;;
32080;SDS011;18593;51.426;7.030;2023-12-07T11:08:14;28.15;;;15.65;;
32080;SDS011;18593;51.426;7.030;2023-12-07T11:10:54;27.73;;;15.40;;
32080;SDS011;18593;51.426;7.030;2023-12-07T11:13:33;29.13;;;16.25;;
32080;SDS011;18593;51.426;7.030;2023-12-07T11:16:06;27.48;;;15.40;;
32080;SDS011;18593;51.426;7.030;2023-12-07T11:18:36;29.50;;;16.48;;
32080;SDS011;18593;51.426;7.030;2023-12-07T11:21:03;28.27;;;16.15;;
32080;SDS011;18593;51.426;7.030;2023-12-07T11:23:31;28.42;;;15.65;;
32080;SDS011;18593;51.426;7.030;2023-12-07T11:25:59;28.35;;;15.80;;
32080;SDS011;18593;51.426;7.030;2023-12-07T11:28:35;32.78;;;16.38;;
32080;SDS011;18593;51.426;7.030;2023-12-07T11:31:06;26.95;;;15.90;;
32080;SDS011;18593;51.426;7.030;2023-12-07T11:33:33;27.85;;;16.98;;
32080;SDS011;18593;51.426;7.030;2023-12-07T11:36:06;26.38;;;15.77;;
32080;SDS011;18593;51.426;7.030;2023-12-07T11:38:36;31.42;;;15.98;;
32080;SDS011;18593;51.426;7.030;2023-12-07T11:41:04;27.73;;;16.30;;
32080;SDS011;18593;51.426;7.030;2023-12-07T11:43:51;28.13;;;15.63;;
32080;SDS011;18593;51.426;7.030;2023-12-07T11:46:21;28.85;;;16.15;;
32080;SDS011;18593;51.426;7.030;2023-12-07T11:48:50;25.00;;;15.80;;
32080;SDS011;18593;51.426;7.030;2023-12-07T11:51:19;29.88;;;16.00;;
32080;SDS011;18593;51.426;7.030;2023-12-07T11:53:46;27.65;;;16.05;;
32080;SDS011;18593;51.426;7.030;2023-12-07T11:56:15;28.50;;;16.60;;
32080;SDS011;18593;51.426;7.030;2023-12-07T11:58:48;25.10;;;15.80;;
32080;SDS011;18593;51.426;7.030;2023-12-07T12:01:16;26.15;;;16.40;;
32080;SDS011;18593;51.426;7.030;2023-12-07T12:03:44;23.55;;;14.18;;
32080;SDS011;18593;51.426;7.030;2023-12-07T12:06:12;23.88;;;14.95;;
32080;SDS011;18593;51.426;7.030;2023-12-07T12:08:40;23.42;;;14.32;;
32080;SDS011;18593;51.426;7.030;2023-12-07T12:11:07;23.85;;;14.57;;
32080;SDS011;18593;51.426;7.030;2023-12-07T12:13:36;23.45;;;14.13;;
32080;SDS011;18593;51.426;7.030;2023-12-07T12:16:08;23.30;;;14.30;;
32080;SDS011;18593;51.426;7.030;2023-12-07T12:18:36;26.15;;;14.38;;
32080;SDS011;18593;51.426;7.030;2023-12-07T12:21:06;25.00;;;14.27;;
32080;SDS011;18593;51.426;7.030;2023-12-07T12:23:35;23.73;;;14.10;;
32080;SDS011;18593;51.426;7.030;2023-12-07T12:26:06;25.88;;;14.65;;
32080;SDS011;18593;51.426;7.030;2023-12-07T12:28:35;24.30;;;14.75;;
32080;SDS011;18593;51.426;7.030;2023-12-07T12:31:09;23.92;;;14.35;;
32080;SDS011;18593;51.426;7.030;2023-12-07T12:33:37;22.07;;;13.47;;
32080;SDS011;18593;51.426;7.030;2023-12-07T12:36:06;24.98;;;14.38;;
32080;SDS011;18593;51.426;7.030;2023-12-07T12:38:36;25.30;;;14.57;;
32080;SDS011;18593;51.426;7.030;2023-12-07T12:41:04;22.98;;;13.57;;
32080;SDS011;18593;51.426;7.030;2023-12-07T12:43:32;22.92;;;13.70;;
32080;SDS011;18593;51.426;7.030;2023-12-07T12:46:01;25.67;;;14.90;;
32080;SDS011;18593;51.426;7.030;2023-12-07T12:48:31;26.90;;;13.85;;
32080;SDS011;18593;51.426;7.030;2023-12-07T12:50:59;20.08;;;13.55;;
32080;SDS011;18593;51.426;7.030;2023-12-07T12:53:35;22.05;;;13.77;;
32080;SDS011;18593;51.426;7.030;2023-12-07T12:56:07;21.90;;;13.90;;
32080;SDS011;18593;51.426;7.030;2023-12-07T12:58:36;25.30;;;14.15;;
32080;SDS011;18593;51.426;7.030;2023-12-07T13:01:04;22.25;;;13.82;;
32080;SDS011;18593;51.426;7.030;2023-12-07T13:03:33;25.20;;;14.35;;
32080;SDS011;18593;51.426;7.030;2023-12-07T13:06:01;22.77;;;13.27;;
32080;SDS011;18593;51.426;7.030;2023-12-07T13:08:30;21.40;;;13.10;;
32080;SDS011;18593;51.426;7.030;2023-12-07T13:11:02;24.08;;;13.27;;
32080;SDS011;18593;51.426;7.030;2023-12-07T13:13:29;23.67;;;14.38;;
32080;SDS011;18593;51.426;7.030;2023-12-07T13:15:57;20.90;;;12.98;;
32080;SDS011;18593;51.426;7.030;2023-12-07T13:18:24;21.55;;;12.55;;
32080;SDS011;18593;51.426;7.030;2023-12-07T13:20:54;21.02;;;12.43;;
32080;SDS011;18593;51.426;7.030;2023-12-07T13:23:21;22.95;;;12.88;;
32080;SDS011;18593;51.426;7.030;2023-12-07T13:25:49;20.90;;;12.93;;
32080;SDS011;18593;51.426;7.030;2023-12-07T13:28:17;21.50;;;12.88;;
32080;SDS011;18593;51.426;7.030;2023-12-07T13:30:47;21.38;;;12.15;;
32080;SDS011;18593;51.426;7.030;2023-12-07T13:33:15;22.73;;;13.82;;
32080;SDS011;18593;51.426;7.030;2023-12-07T13:35:42;21.52;;;12.35;;
32080;SDS011;18593;51.426;7.030;2023-12-07T13:38:12;23.45;;;12.70;;
32080;SDS011;18593;51.426;7.030;2023-12-07T13:40:39;19.35;;;11.88;;
32080;SDS011;18593;51.426;7.030;2023-12-07T13:43:07;21.38;;;12.75;;
32080;SDS011;18593;51.426;7.030;2023-12-07T13:45:34;23.02;;;12.30;;
32080;SDS011;18593;51.426;7.030;2023-12-07T13:48:02;25.98;;;12.57;;
32080;SDS011;18593;51.426;7.030;2023-12-07T13:50:30;24.17;;;12.18;;
32080;SDS011;18593;51.426;7.030;2023-12-07T13:52:58;25.55;;;11.77;;
32080;SDS011;18593;51.426;7.030;2023-12-07T13:55:28;16.58;;;11.02;;
32080;SDS011;18593;51.426;7.030;2023-12-07T13:57:56;19.20;;;12.23;;
32080;SDS011;18593;51.426;7.030;2023-12-07T14:00:25;20.35;;;11.75;;
32080;SDS011;18593;51.426;7.030;2023-12-07T14:02:54;20.15;;;12.07;;
32080;SDS011;18593;51.426;7.030;2023-12-07T14:05:22;23.73;;;12.32;;
32080;SDS011;18593;51.426;7.030;2023-12-07T14:07:50;18.50;;;11.15;;
32080;SDS011;18593;51.426;7.030;2023-12-07T14:10:17;20.00;;;11.40;;
32080;SDS011;18593;51.426;7.030;2023-12-07T14:12:46;16.42;;;10.77;;
32080;SDS011;18593;51.426;7.030;2023-12-07T14:15:14;21.00;;;10.75;;
32080;SDS011;18593;51.426;7.030;2023-12-07T14:17:42;17.08;;;10.40;;
32080;SDS011;18593;51.426;7.030;2023-12-07T14:20:10;17.30;;;10.10;;
32080;SDS011;18593;51.426;7.030;2023-12-07T14:22:39;23.48;;;10.73;;
32080;SDS011;18593;51.426;7.030;2023-12-07T14:25:07;17.38;;;10.50;;
32080;SDS011;18593;51.426;7.030;2023-12-07T14:27:36;19.98;;;10.23;;
32080;SDS011;18593;51.426;7.030;2023-12-07T14:30:09;17.33;;;10.88;;
32080;SDS011;18593;51.426;7.030;2023-12-07T14:32:38;17.63;;;10.77;;
32080;SDS011;18593;51.426;7.030;2023-12-07T14:35:09;21.00;;;11.17;;
32080;SDS011;18593;51.426;7.030;2023-12-07T14:37:38;24.20;;;12.10;;